Time,TemperatureF,DewpointF,PressureIn,WindDirection,WindDirectionDegrees,WindSpeedMPH,WindSpeedGustMPH,Humidity,HourlyPrecipIn,Conditions,Clouds,dailyrainin,SoftwareType,DateUTC
2013-01-26 00:02:00,70.9,70.3,29.49,SE,135,4.7,4.7,98,0.00,RA,,0.00,WeatherDisplay:10.37,2013-01-25 22:02:00,
2013-01-26 00:07:00,72.1,71.5,29.49,ESE,112,5.8,5.8,98,0.00,RA,,0.00,WeatherDisplay:10.37,2013-01-25 22:07:00,
2013-01-26 00:12:00,73.4,72.8,29.49,ESE,112,3.5,3.5,98,0.00,CLR,,0.00,WeatherDisplay:10.37,2013-01-25 22:12:00,
2013-01-26 00:17:00,72.7,72.1,29.49,SE,135,4.6,4.6,98,0.00,CLR,,0.00,WeatherDisplay:10.37,2013-01-25 22:17:00,
2013-01-26 00:22:00,73.8,73.2,29.49,SE,135,4.7,4.7,98,0.00,CLR,,0.00,WeatherDisplay:10.37,2013-01-25 22:22:00,
2013-01-26 00:27:00,73.9,73.3,29.49,ESE,112,4.6,4.6,98,0.00,CLR,,0.00,WeatherDisplay:10.37,2013-01-25 22:27:00,
2013-01-26 00:32:00,73.9,73.3,29.49,ESE,112,5.8,5.8,98,0.00,CLR,,0.00,WeatherDisplay:10.37,2013-01-25 22:32:00,
2013-01-26 00:37:00,73.9,73.3,29.49,SSE,158,4.6,4.6,98,0.00,CLR,,0.00,WeatherDisplay:10.37,2013-01-25 22:37:00,
2013-01-26 00:42:00,73.6,73.0,29.49,ESE,112,5.8,5.8,98,0.00,CLR,,0.00,WeatherDisplay:10.37,2013-01-25 22:42:00,
2013-01-26 00:47:00,74.1,73.5,29.49,ESE,112,4.6,4.6,98,0.00,CLR,,0.00,WeatherDisplay:10.37,2013-01-25 22:47:00,
2013-01-26 00:52:00,73.9,73.3,29.49,SE,135,4.6,4.6,98,0.00,CLR,,0.00,WeatherDisplay:10.37,2013-01-25 22:52:00,
2013-01-26 00:57:00,74.1,73.5,29.49,SE,135,3.7,4.2,98,0.00,CLR,,0.00,WeatherDisplay:10.37,2013-01-25 22:57:00,
2013-01-26 01:02:00,73.9,73.3,29.49,ESE,112,5.8,5.8,98,0.00,CLR,,0.00,WeatherDisplay:10.37,2013-01-25 23:02:00,
2013-01-26 01:07:00,74.5,73.9,29.48,ESE,112,3.5,3.5,98,0.00,CLR,,0.00,WeatherDisplay:10.37,2013-01-25 23:07:00,
2013-01-26 01:12:00,74.5,73.9,29.48,SE,135,5.8,5.8,98,0.00,CLR,,0.00,WeatherDisplay:10.37,2013-01-25 23:12:00,
2013-01-26 01:17:00,74.7,74.1,29.48,SE,135,4.6,4.6,98,0.00,CLR,,0.00,WeatherDisplay:10.37,2013-01-25 23:17:00,
2013-01-26 01:22:00,74.5,73.9,29.48,ESE,112,4.6,4.6,98,0.00,CLR,,0.00,WeatherDisplay:10.37,2013-01-25 23:22:00,
2013-01-26 01:27:00,73.9,73.3,29.48,ESE,112,6.3,6.3,98,0.00,CLR,,0.00,WeatherDisplay:10.37,2013-01-25 23:27:00,
2013-01-26 01:32:00,74.1,73.5,29.48,SSE,158,4.7,4.7,98,0.00,CLR,,0.00,WeatherDisplay:10.37,2013-01-25 23:32:00,
2013-01-26 01:37:00,74.3,73.7,29.48,NE,45,5.8,5.8,98,0.00,CLR,,0.00,WeatherDisplay:10.37,2013-01-25 23:37:00,
2013-01-26 01:42:00,74.1,73.5,29.48,ESE,112,2.3,2.3,98,0.00,CLR,,0.00,WeatherDisplay:10.37,2013-01-25 23:42:00,
2013-01-26 01:47:00,73.8,73.2,29.48,ESE,112,1.1,1.1,98,0.00,CLR,,0.00,WeatherDisplay:10.37,2013-01-25 23:47:00,
2013-01-26 01:52:00,73.4,72.8,29.48,North,360,1.1,0.0,98,0.00,CLR,,0.00,WeatherDisplay:10.37,2013-01-25 23:52:00,
2013-01-26 01:57:00,73.4,72.8,30.02,North,0,1.6,-999.0,98,-99.99,,,0.00,Acu-Link.com,2013-01-25 23:57:00,
2013-01-26 02:02:00,73.9,73.3,29.48,NNE,22,3.2,3.2,98,0.00,CLR,,0.00,WeatherDisplay:10.37,2013-01-26 00:02:00,
2013-01-26 02:07:00,73.6,73.0,29.47,North,360,2.3,2.3,98,0.00,CLR,,0.00,WeatherDisplay:10.37,2013-01-26 00:07:00,
2013-01-26 02:12:00,73.6,73.0,29.47,North,360,2.3,2.3,98,0.00,CLR,,0.00,WeatherDisplay:10.37,2013-01-26 00:12:00,
2013-01-26 02:17:00,73.6,73.0,29.47,North,360,1.7,1.7,98,0.00,CLR,,0.00,WeatherDisplay:10.37,2013-01-26 00:17:00,
2013-01-26 02:22:00,73.4,72.8,29.47,North,360,1.7,1.7,98,0.00,CLR,,0.00,WeatherDisplay:10.37,2013-01-26 00:22:00,
2013-01-26 02:27:00,73.6,73.0,29.47,North,360,1.7,1.7,98,0.00,CLR,,0.00,WeatherDisplay:10.37,2013-01-26 00:27:00,
2013-01-26 02:32:00,73.2,72.6,29.47,North,360,1.1,1.1,98,0.00,CLR,,0.00,WeatherDisplay:10.37,2013-01-26 00:32:00,
2013-01-26 02:37:00,72.0,71.4,29.47,North,360,0.0,0.0,98,0.00,CLR,,0.00,WeatherDisplay:10.37,2013-01-26 00:37:00,
2013-01-26 02:42:00,71.6,71.0,29.47,North,360,0.0,0.0,98,0.00,CLR,,0.00,WeatherDisplay:10.37,2013-01-26 00:42:00,
2013-01-26 02:47:00,70.5,69.9,29.47,North,360,0.0,0.0,98,0.00,CLR,,0.00,WeatherDisplay:10.37,2013-01-26 00:47:00,
2013-01-26 02:52:00,71.2,70.6,29.47,North,360,0.0,0.0,98,0.00,CLR,,0.00,WeatherDisplay:10.37,2013-01-26 00:52:00,
2013-01-26 02:57:00,70.7,70.1,29.47,North,360,0.0,0.0,98,0.00,CLR,,0.00,WeatherDisplay:10.37,2013-01-26 00:57:00,
2013-01-26 03:02:00,70.2,69.6,29.47,North,360,0.0,0.0,98,0.00,CLR,,0.00,WeatherDisplay:10.37,2013-01-26 01:02:00,
2013-01-26 03:07:00,70.7,70.1,29.47,North,360,0.0,0.0,98,0.00,CLR,,0.00,WeatherDisplay:10.37,2013-01-26 01:07:00,
2013-01-26 03:12:00,70.2,69.6,29.47,North,360,0.0,0.0,98,0.00,CLR,,0.00,WeatherDisplay:10.37,2013-01-26 01:12:00,
2013-01-26 03:17:00,69.6,69.0,29.46,North,360,0.0,0.0,98,0.00,CLR,,0.00,WeatherDisplay:10.37,2013-01-26 01:17:00,
2013-01-26 03:22:00,68.7,68.1,29.46,North,360,0.0,0.0,98,0.00,CLR,,0.00,WeatherDisplay:10.37,2013-01-26 01:22:00,
2013-01-26 03:27:00,69.1,68.5,29.46,North,360,0.0,0.0,98,0.00,CLR,,0.00,WeatherDisplay:10.37,2013-01-26 01:27:00,
2013-01-26 03:32:00,68.7,68.1,29.46,North,360,0.0,0.0,98,0.00,CLR,,0.00,WeatherDisplay:10.37,2013-01-26 01:32:00,
2013-01-26 03:37:00,68.5,67.9,29.46,North,360,0.0,0.0,98,0.00,CLR,,0.00,WeatherDisplay:10.37,2013-01-26 01:37:00,
2013-01-26 03:42:00,68.0,67.4,29.45,North,360,0.0,0.0,98,0.00,CLR,,0.00,WeatherDisplay:10.37,2013-01-26 01:42:00,
2013-01-26 03:47:00,67.6,67.0,29.45,North,360,0.0,0.0,98,0.00,CLR,,0.00,WeatherDisplay:10.37,2013-01-26 01:47:00,
2013-01-26 03:52:00,67.6,67.0,29.45,North,360,0.0,0.0,98,0.00,CLR,,0.00,WeatherDisplay:10.37,2013-01-26 01:52:00,
2013-01-26 03:57:00,67.1,66.5,29.45,North,360,0.0,0.0,98,0.00,CLR,,0.00,WeatherDisplay:10.37,2013-01-26 01:57:00,
2013-01-26 04:02:00,66.6,66.0,29.45,North,360,0.0,0.0,98,0.00,CLR,,0.00,WeatherDisplay:10.37,2013-01-26 02:02:00,
2013-01-26 04:07:00,66.7,66.1,29.45,North,360,0.0,0.0,98,0.00,CLR,,0.00,WeatherDisplay:10.37,2013-01-26 02:07:00,
2013-01-26 04:12:00,66.7,66.1,29.45,North,360,0.0,0.0,98,0.00,CLR,,0.00,WeatherDisplay:10.37,2013-01-26 02:12:00,
2013-01-26 04:17:00,67.5,66.9,29.45,North,360,0.0,0.0,98,0.00,CLR,,0.00,WeatherDisplay:10.37,2013-01-26 02:17:00,
2013-01-26 04:22:00,66.4,65.8,29.45,North,360,0.0,0.0,98,0.00,CLR,,0.00,WeatherDisplay:10.37,2013-01-26 02:22:00,
2013-01-26 04:27:00,66.0,65.4,29.45,North,360,0.0,0.0,98,0.00,CLR,,0.00,WeatherDisplay:10.37,2013-01-26 02:27:00,
2013-01-26 04:32:00,66.7,66.1,29.45,North,360,0.0,0.0,98,0.00,CLR,,0.00,WeatherDisplay:10.37,2013-01-26 02:32:00,
2013-01-26 04:37:00,67.3,66.7,29.45,North,360,0.0,0.0,98,0.00,CLR,,0.00,WeatherDisplay:10.37,2013-01-26 02:37:00,
2013-01-26 04:42:00,66.2,65.6,29.45,North,360,0.0,0.0,98,0.00,CLR,,0.00,WeatherDisplay:10.37,2013-01-26 02:42:00,
2013-01-26 04:47:00,65.8,65.2,29.45,North,360,0.0,0.0,98,0.00,CLR,,0.00,WeatherDisplay:10.37,2013-01-26 02:47:00,
2013-01-26 04:53:00,66.0,65.4,29.45,North,360,0.0,0.0,98,0.00,CLR,,0.00,WeatherDisplay:10.37,2013-01-26 02:53:00,
2013-01-26 04:58:00,66.6,66.0,29.45,North,360,0.0,0.0,98,0.00,CLR,,0.00,WeatherDisplay:10.37,2013-01-26 02:58:00,
2013-01-26 05:03:00,66.0,65.4,29.45,North,360,0.0,0.0,98,0.00,CLR,,0.00,WeatherDisplay:10.37,2013-01-26 03:03:00,
2013-01-26 05:08:00,66.0,65.4,29.45,North,360,0.0,0.0,98,0.00,CLR,,0.00,WeatherDisplay:10.37,2013-01-26 03:08:00,
2013-01-26 05:13:00,66.2,65.6,29.45,North,360,0.0,0.0,98,0.00,CLR,,0.00,WeatherDisplay:10.37,2013-01-26 03:13:00,
2013-01-26 05:18:00,66.2,65.6,29.45,North,360,0.0,0.0,98,0.00,CLR,,0.00,WeatherDisplay:10.37,2013-01-26 03:18:00,
2013-01-26 05:23:00,67.5,66.9,29.45,North,360,0.0,0.0,98,0.00,CLR,,0.00,WeatherDisplay:10.37,2013-01-26 03:23:00,
2013-01-26 05:28:00,65.8,65.2,29.45,North,360,1.1,1.1,98,0.00,CLR,,0.00,WeatherDisplay:10.37,2013-01-26 03:28:00,
2013-01-26 05:33:00,66.0,65.4,29.46,North,360,0.0,0.0,98,0.00,CLR,,0.00,WeatherDisplay:10.37,2013-01-26 03:33:00,
2013-01-26 05:38:00,66.6,66.0,29.46,North,360,0.0,0.0,98,0.00,CLR,,0.00,WeatherDisplay:10.37,2013-01-26 03:38:00,
2013-01-26 05:43:00,66.4,65.8,29.45,North,360,0.0,0.0,98,0.00,CLR,,0.00,WeatherDisplay:10.37,2013-01-26 03:43:00,
2013-01-26 05:48:00,66.0,65.4,29.45,North,360,0.0,0.0,98,0.00,CLR,,0.00,WeatherDisplay:10.37,2013-01-26 03:48:00,
2013-01-26 05:53:00,66.6,66.0,29.45,North,360,0.0,0.0,98,0.00,CLR,,0.00,WeatherDisplay:10.37,2013-01-26 03:53:00,
2013-01-26 05:58:00,66.0,65.4,29.45,North,360,0.0,0.0,98,0.00,CLR,,0.00,WeatherDisplay:10.37,2013-01-26 03:58:00,
2013-01-26 06:03:00,66.7,66.1,29.45,North,360,0.0,0.0,98,0.00,CLR,,0.00,WeatherDisplay:10.37,2013-01-26 04:03:00,
2013-01-26 06:08:00,67.5,66.9,29.45,North,360,0.0,0.0,98,0.00,CLR,,0.00,WeatherDisplay:10.37,2013-01-26 04:08:00,
2013-01-26 06:13:00,66.7,66.1,29.45,North,360,0.0,0.0,98,0.00,CLR,,0.00,WeatherDisplay:10.37,2013-01-26 04:13:00,
2013-01-26 06:18:00,67.6,67.0,29.46,North,360,0.0,0.0,98,0.00,CLR,,0.00,WeatherDisplay:10.37,2013-01-26 04:18:00,
2013-01-26 06:23:00,68.4,67.8,29.46,North,360,0.0,0.0,98,0.00,CLR,,0.00,WeatherDisplay:10.37,2013-01-26 04:23:00,
2013-01-26 06:28:00,68.2,67.6,29.46,North,360,0.0,0.0,98,0.00,CLR,,0.00,WeatherDisplay:10.37,2013-01-26 04:28:00,
2013-01-26 06:33:00,68.4,67.8,29.46,North,360,0.0,0.0,98,0.00,CLR,,0.00,WeatherDisplay:10.37,2013-01-26 04:33:00,
2013-01-26 06:38:00,70.7,70.1,29.46,North,360,2.3,2.3,98,0.00,CLR,,0.00,WeatherDisplay:10.37,2013-01-26 04:38:00,
2013-01-26 06:43:00,73.2,72.6,29.46,North,360,1.1,1.1,98,0.00,CLR,,0.00,WeatherDisplay:10.37,2013-01-26 04:43:00,
2013-01-26 06:48:00,74.7,74.1,29.46,ESE,112,2.3,2.3,98,0.00,CLR,,0.00,WeatherDisplay:10.37,2013-01-26 04:48:00,
2013-01-26 06:53:00,75.4,74.8,29.46,SSE,158,2.2,2.2,98,0.00,CLR,,0.00,WeatherDisplay:10.37,2013-01-26 04:53:00,
2013-01-26 06:58:00,76.1,75.5,29.47,SSE,158,3.5,3.5,98,0.00,CLR,,0.00,WeatherDisplay:10.37,2013-01-26 04:58:00,
2013-01-26 07:00:00,76.5,75.9,29.47,SSE,158,2.7,2.9,98,0.00,CLR,,0.00,WeatherDisplay:10.37,2013-01-26 05:00:00,
2013-01-26 07:01:00,76.3,75.7,29.47,South,180,3.5,3.5,98,0.00,CLR,,0.00,WeatherDisplay:10.37,2013-01-26 05:01:00,
2013-01-26 07:07:00,78.3,77.7,29.47,SE,135,2.7,2.7,98,0.00,CLR,,0.00,WeatherDisplay:10.37,2013-01-26 05:07:00,
2013-01-26 07:12:00,79.7,79.1,29.47,ESE,112,4.6,4.6,98,0.00,CLR,,0.00,WeatherDisplay:10.37,2013-01-26 05:12:00,
2013-01-26 07:17:00,80.2,79.6,29.47,ESE,112,4.6,4.6,98,0.00,CLR,,0.00,WeatherDisplay:10.37,2013-01-26 05:17:00,
2013-01-26 07:22:00,81.0,80.4,29.47,ESE,112,5.8,5.8,98,0.00,CLR,,0.00,WeatherDisplay:10.37,2013-01-26 05:22:00,
2013-01-26 07:27:00,80.2,79.6,29.47,East,90,3.7,3.7,98,0.00,CLR,,0.00,WeatherDisplay:10.37,2013-01-26 05:27:00,
2013-01-26 07:32:00,78.1,77.5,29.47,NE,45,5.3,5.3,98,0.00,CLR,,0.00,WeatherDisplay:10.37,2013-01-26 05:32:00,
2013-01-26 07:37:00,75.4,74.8,29.47,NE,45,4.6,4.6,98,0.00,CLR,,0.00,WeatherDisplay:10.37,2013-01-26 05:37:00,
2013-01-26 07:42:00,76.3,75.7,29.47,East,90,3.2,3.2,98,0.00,CLR,,0.00,WeatherDisplay:10.37,2013-01-26 05:42:00,
2013-01-26 07:47:00,77.4,76.8,29.47,NNE,22,3.7,3.7,98,0.00,CLR,,0.00,WeatherDisplay:10.37,2013-01-26 05:47:00,
2013-01-26 07:52:00,77.7,77.1,29.47,ENE,68,3.5,3.5,98,0.00,CLR,,0.00,WeatherDisplay:10.37,2013-01-26 05:52:00,
2013-01-26 07:57:00,78.4,77.8,29.47,NNE,22,2.3,2.4,98,0.00,CLR,,0.00,WeatherDisplay:10.37,2013-01-26 05:57:00,
2013-01-26 08:02:00,78.3,77.7,29.47,West,270,2.3,2.3,98,0.00,CLR,,0.00,WeatherDisplay:10.37,2013-01-26 06:02:00,
2013-01-26 08:07:00,77.7,77.1,29.47,NNE,22,4.6,4.6,98,0.00,CLR,,0.00,WeatherDisplay:10.37,2013-01-26 06:07:00,
2013-01-26 08:12:00,77.5,76.9,29.47,NE,45,5.8,5.8,98,0.00,CLR,,0.00,WeatherDisplay:10.37,2013-01-26 06:12:00,
2013-01-26 08:17:00,77.2,76.6,29.47,NNE,22,5.8,5.8,98,0.00,CLR,,0.00,WeatherDisplay:10.37,2013-01-26 06:17:00,
2013-01-26 08:22:00,77.7,77.1,29.47,ENE,68,5.3,5.3,98,0.00,CLR,,0.00,WeatherDisplay:10.37,2013-01-26 06:22:00,
2013-01-26 08:27:00,78.6,78.0,29.47,NE,45,5.8,5.8,98,0.00,CLR,,0.00,WeatherDisplay:10.37,2013-01-26 06:27:00,
2013-01-26 08:32:00,78.4,77.8,29.47,NE,45,4.7,4.7,98,0.00,CLR,,0.00,WeatherDisplay:10.37,2013-01-26 06:32:00,
2013-01-26 08:37:00,79.0,78.4,29.47,ENE,68,3.5,3.5,98,0.00,CLR,,0.00,WeatherDisplay:10.37,2013-01-26 06:37:00,
2013-01-26 08:42:00,79.3,78.7,29.46,NE,45,4.6,4.6,98,0.00,CLR,,0.00,WeatherDisplay:10.37,2013-01-26 06:42:00,
2013-01-26 08:47:00,79.2,78.6,29.46,NE,45,3.5,3.5,98,0.00,CLR,,0.00,WeatherDisplay:10.37,2013-01-26 06:47:00,
2013-01-26 08:52:00,80.1,79.5,29.46,East,90,3.5,3.5,98,0.00,CLR,,0.00,WeatherDisplay:10.37,2013-01-26 06:52:00,
2013-01-26 08:57:00,81.5,80.9,29.47,ENE,68,5.8,5.8,98,0.00,CLR,,0.00,WeatherDisplay:10.37,2013-01-26 06:57:00,
2013-01-26 09:02:00,81.1,80.5,29.47,ENE,68,5.8,5.8,98,0.00,CLR,,0.00,WeatherDisplay:10.37,2013-01-26 07:02:00,
2013-01-26 09:07:00,79.3,78.7,29.46,ENE,68,4.6,4.6,98,0.00,CLR,,0.00,WeatherDisplay:10.37,2013-01-26 07:07:00,
2013-01-26 09:12:00,79.5,78.9,29.46,NNE,22,5.8,5.8,98,0.00,CLR,,0.00,WeatherDisplay:10.37,2013-01-26 07:12:00,
2013-01-26 09:17:00,79.0,78.4,29.46,ESE,112,4.6,4.6,98,0.00,CLR,,0.00,WeatherDisplay:10.37,2013-01-26 07:17:00,
2013-01-26 09:22:00,78.6,78.0,29.46,East,90,5.8,5.8,98,0.00,CLR,,0.00,WeatherDisplay:10.37,2013-01-26 07:22:00,
2013-01-26 09:27:00,79.5,78.9,29.46,ESE,112,4.7,4.7,98,0.00,CLR,,0.00,WeatherDisplay:10.37,2013-01-26 07:27:00,
2013-01-26 09:32:00,80.4,79.8,29.46,NNE,22,5.8,5.8,98,0.00,CLR,,0.00,WeatherDisplay:10.37,2013-01-26 07:32:00,
2013-01-26 09:37:00,82.2,81.6,29.46,East,90,5.8,5.8,98,0.00,CLR,,0.00,WeatherDisplay:10.37,2013-01-26 07:37:00,
2013-01-26 09:42:00,81.1,80.5,29.46,SSE,158,6.9,6.9,98,0.00,CLR,,0.00,WeatherDisplay:10.37,2013-01-26 07:42:00,
2013-01-26 09:47:00,82.0,81.4,29.46,East,90,8.3,8.3,98,0.00,CLR,,0.00,WeatherDisplay:10.37,2013-01-26 07:47:00,
2013-01-26 09:52:00,81.9,81.3,29.46,SSE,158,6.9,7.0,98,0.00,CLR,,0.00,WeatherDisplay:10.37,2013-01-26 07:52:00,
2013-01-26 09:57:00,81.3,80.7,29.46,SSE,158,7.3,8.0,98,0.00,CLR,,0.00,WeatherDisplay:10.37,2013-01-26 07:57:00,
2013-01-26 10:02:00,82.6,82.0,29.46,SE,135,9.4,9.4,98,0.00,CLR,,0.00,WeatherDisplay:10.37,2013-01-26 08:02:00,
2013-01-26 10:07:00,80.6,80.0,29.45,South,180,8.1,8.1,98,0.00,CLR,,0.00,WeatherDisplay:10.37,2013-01-26 08:07:00,
2013-01-26 10:12:00,79.3,78.7,29.45,South,180,6.9,6.9,98,0.00,CLR,,0.00,WeatherDisplay:10.37,2013-01-26 08:12:00,
2013-01-26 10:17:00,79.5,78.9,29.45,ESE,112,9.2,9.2,98,0.00,CLR,,0.00,WeatherDisplay:10.37,2013-01-26 08:17:00,
2013-01-26 10:22:00,78.4,77.8,29.45,South,180,9.2,9.2,98,0.00,CLR,,0.00,WeatherDisplay:10.37,2013-01-26 08:22:00,
2013-01-26 10:27:00,80.2,79.6,29.45,SSE,158,9.9,9.9,98,0.00,CLR,,0.00,WeatherDisplay:10.37,2013-01-26 08:27:00,
2013-01-26 10:32:00,79.2,78.6,29.45,SE,135,10.4,10.4,98,0.00,CLR,,0.00,WeatherDisplay:10.37,2013-01-26 08:32:00,
2013-01-26 10:37:00,81.0,80.4,29.45,South,180,5.8,5.8,98,0.00,CLR,,0.00,WeatherDisplay:10.37,2013-01-26 08:37:00,
2013-01-26 10:42:00,80.4,79.8,29.45,SSE,158,9.4,9.4,98,0.00,CLR,,0.00,WeatherDisplay:10.37,2013-01-26 08:42:00,
2013-01-26 10:47:00,82.8,82.2,29.45,ESE,112,8.1,8.1,98,0.00,CLR,,0.00,WeatherDisplay:10.37,2013-01-26 08:47:00,
2013-01-26 10:52:00,80.6,80.0,29.45,SSE,158,8.1,8.1,98,0.00,CLR,,0.00,WeatherDisplay:10.37,2013-01-26 08:52:00,
2013-01-26 10:57:00,81.5,80.9,29.45,South,180,10.4,10.4,98,0.00,CLR,,0.00,WeatherDisplay:10.37,2013-01-26 08:57:00,
2013-01-26 11:02:00,82.2,81.6,29.45,ESE,112,9.2,9.2,98,0.00,CLR,,0.00,WeatherDisplay:10.37,2013-01-26 09:02:00,
2013-01-26 11:07:00,81.0,80.4,29.44,South,180,8.1,8.1,98,0.00,CLR,,0.00,WeatherDisplay:10.37,2013-01-26 09:07:00,
2013-01-26 11:12:00,81.5,80.9,29.44,ESE,112,9.2,9.2,98,0.00,CLR,,0.00,WeatherDisplay:10.37,2013-01-26 09:12:00,
2013-01-26 11:17:00,81.9,81.3,29.44,ESE,112,9.2,9.2,98,0.00,CLR,,0.00,WeatherDisplay:10.37,2013-01-26 09:17:00,
2013-01-26 11:22:00,81.9,81.3,29.44,SSE,158,10.4,10.4,98,0.00,CLR,,0.00,WeatherDisplay:10.37,2013-01-26 09:22:00,
2013-01-26 11:27:00,81.7,81.1,29.44,ESE,112,9.2,9.2,98,0.00,CLR,,0.00,WeatherDisplay:10.37,2013-01-26 09:27:00,
2013-01-26 11:32:00,83.1,82.5,29.44,SSE,158,9.2,9.2,98,0.00,CLR,,0.00,WeatherDisplay:10.37,2013-01-26 09:32:00,
2013-01-26 11:37:00,83.3,82.7,29.44,WSW,248,11.5,11.5,98,0.00,CLR,,0.00,WeatherDisplay:10.37,2013-01-26 09:37:00,
2013-01-26 11:42:00,82.4,81.8,29.44,South,180,11.5,11.5,98,0.00,CLR,,0.00,WeatherDisplay:10.37,2013-01-26 09:42:00,
2013-01-26 11:47:00,82.0,81.4,29.44,SE,135,10.4,10.4,98,0.00,CLR,,0.00,WeatherDisplay:10.37,2013-01-26 09:47:00,
2013-01-26 11:52:00,83.1,82.5,29.44,SSE,158,10.4,10.4,98,0.00,CLR,,0.00,WeatherDisplay:10.37,2013-01-26 09:52:00,
2013-01-26 11:57:00,82.9,82.3,29.44,SSE,158,10.4,10.4,98,0.00,CLR,,0.00,WeatherDisplay:10.37,2013-01-26 09:57:00,
2013-01-26 12:02:00,82.6,82.0,29.44,SE,135,7.3,7.3,98,0.00,CLR,,0.00,WeatherDisplay:10.37,2013-01-26 10:02:00,
2013-01-26 12:07:00,83.1,82.5,29.43,SSW,202,10.4,10.4,98,0.00,CLR,,0.00,WeatherDisplay:10.37,2013-01-26 10:07:00,
2013-01-26 12:12:00,83.5,82.9,29.43,ESE,112,9.4,9.4,98,0.00,CLR,,0.00,WeatherDisplay:10.37,2013-01-26 10:12:00,
2013-01-26 12:17:00,83.5,82.9,29.43,South,180,13.8,13.8,98,0.00,CLR,,0.00,WeatherDisplay:10.37,2013-01-26 10:17:00,
2013-01-26 12:22:00,85.1,84.5,29.43,SSE,158,11.5,11.5,98,0.00,CLR,,0.00,WeatherDisplay:10.37,2013-01-26 10:22:00,
2013-01-26 12:27:00,83.8,83.2,29.43,South,180,10.4,10.4,98,0.00,CLR,,0.00,WeatherDisplay:10.37,2013-01-26 10:27:00,
2013-01-26 12:32:00,83.1,82.5,29.43,SSW,202,10.4,10.4,98,0.00,CLR,,0.00,WeatherDisplay:10.37,2013-01-26 10:32:00,
2013-01-26 12:37:00,83.1,82.5,29.43,South,180,10.4,10.4,98,0.00,CLR,,0.00,WeatherDisplay:10.37,2013-01-26 10:37:00,
2013-01-26 12:42:00,81.9,81.3,29.43,SSE,158,11.5,11.5,98,0.00,CLR,,0.00,WeatherDisplay:10.37,2013-01-26 10:42:00,
2013-01-26 12:47:00,84.7,84.1,29.43,South,180,12.4,12.4,98,0.00,CLR,,0.00,WeatherDisplay:10.37,2013-01-26 10:47:00,
2013-01-26 12:52:00,83.3,82.7,29.43,South,180,12.4,12.4,98,0.00,CLR,,0.00,WeatherDisplay:10.37,2013-01-26 10:52:00,
2013-01-26 12:57:00,83.5,82.9,29.43,South,180,11.5,11.5,98,0.00,CLR,,0.00,WeatherDisplay:10.37,2013-01-26 10:57:00,
2013-01-26 13:02:00,83.8,83.2,29.43,South,180,13.0,13.0,98,0.00,CLR,,0.00,WeatherDisplay:10.37,2013-01-26 11:02:00,
2013-01-26 13:07:00,84.4,83.8,29.43,East,90,12.7,12.7,98,0.00,CLR,,0.00,WeatherDisplay:10.37,2013-01-26 11:07:00,
2013-01-26 13:12:00,84.0,83.4,29.43,South,180,11.5,11.5,98,0.00,CLR,,0.00,WeatherDisplay:10.37,2013-01-26 11:12:00,
2013-01-26 13:17:00,83.1,82.5,29.43,SSE,158,13.8,13.8,98,0.00,CLR,,0.00,WeatherDisplay:10.37,2013-01-26 11:17:00,
2013-01-26 13:22:00,82.8,82.2,29.43,South,180,14.0,14.0,98,0.00,CLR,,0.00,WeatherDisplay:10.37,2013-01-26 11:22:00,
2013-01-26 13:27:00,84.0,83.4,29.43,SSE,158,11.9,11.9,98,0.00,CLR,,0.00,WeatherDisplay:10.37,2013-01-26 11:27:00,
2013-01-26 13:32:00,83.7,83.1,29.43,South,180,12.7,12.7,98,0.00,CLR,,0.00,WeatherDisplay:10.37,2013-01-26 11:32:00,
2013-01-26 13:37:00,82.2,81.6,29.43,ESE,112,11.5,11.5,98,0.00,CLR,,0.00,WeatherDisplay:10.37,2013-01-26 11:37:00,
2013-01-26 13:42:00,82.0,81.4,29.43,SSE,158,15.0,15.0,98,0.00,CLR,,0.00,WeatherDisplay:10.37,2013-01-26 11:42:00,
2013-01-26 13:47:00,82.6,82.0,29.43,ESE,112,16.1,16.1,98,0.00,CLR,,0.00,WeatherDisplay:10.37,2013-01-26 11:47:00,
2013-01-26 13:52:00,82.9,82.3,29.43,SE,135,12.7,12.7,98,0.00,CLR,,0.00,WeatherDisplay:10.37,2013-01-26 11:52:00,
2013-01-26 13:57:00,85.1,84.5,29.43,SSE,158,11.5,11.5,98,0.00,CLR,,0.00,WeatherDisplay:10.37,2013-01-26 11:57:00,
2013-01-26 14:02:00,84.2,83.6,29.43,SSE,158,12.7,12.7,98,0.00,CLR,,0.00,WeatherDisplay:10.37,2013-01-26 12:02:00,
2013-01-26 14:07:00,83.8,83.2,29.42,South,180,13.8,13.8,98,0.00,CLR,,0.00,WeatherDisplay:10.37,2013-01-26 12:07:00,
2013-01-26 14:12:00,84.6,84.0,29.42,ESE,112,11.5,11.5,98,0.00,CLR,,0.00,WeatherDisplay:10.37,2013-01-26 12:12:00,
2013-01-26 14:17:00,83.8,83.2,29.42,SSW,202,9.4,9.4,98,0.00,CLR,,0.00,WeatherDisplay:10.37,2013-01-26 12:17:00,
2013-01-26 14:22:00,83.7,83.1,29.42,SSE,158,10.4,10.4,98,0.00,CLR,,0.00,WeatherDisplay:10.37,2013-01-26 12:22:00,
2013-01-26 14:27:00,82.6,82.0,29.42,South,180,13.8,13.8,98,0.00,CLR,,0.00,WeatherDisplay:10.37,2013-01-26 12:27:00,
2013-01-26 14:32:00,84.0,83.4,29.42,South,180,12.4,12.4,98,0.00,CLR,,0.00,WeatherDisplay:10.37,2013-01-26 12:32:00,
2013-01-26 14:38:00,84.2,83.6,29.42,SSE,158,11.5,11.5,98,0.00,CLR,,0.00,WeatherDisplay:10.37,2013-01-26 12:38:00,
2013-01-26 14:43:00,84.4,83.8,29.42,SSE,158,11.5,11.5,98,0.00,CLR,,0.00,WeatherDisplay:10.37,2013-01-26 12:43:00,
2013-01-26 14:48:00,83.7,83.1,29.42,South,180,13.8,13.8,98,0.00,CLR,,0.00,WeatherDisplay:10.37,2013-01-26 12:48:00,
2013-01-26 14:53:00,83.3,82.7,29.42,NNE,22,11.5,11.5,98,0.00,CLR,,0.00,WeatherDisplay:10.37,2013-01-26 12:53:00,
2013-01-26 14:58:00,83.3,82.7,29.42,SW,225,11.5,11.5,98,0.00,CLR,,0.00,WeatherDisplay:10.37,2013-01-26 12:58:00,
2013-01-26 15:03:00,84.0,83.4,29.42,SSW,202,14.0,14.0,98,0.00,CLR,,0.00,WeatherDisplay:10.37,2013-01-26 13:03:00,
2013-01-26 15:08:00,83.8,83.2,29.42,SE,135,11.5,11.5,98,0.00,CLR,,0.00,WeatherDisplay:10.37,2013-01-26 13:08:00,
2013-01-26 15:13:00,82.4,81.8,29.42,SSE,158,15.0,15.0,98,0.00,CLR,,0.00,WeatherDisplay:10.37,2013-01-26 13:13:00,
2013-01-26 15:18:00,82.4,81.8,29.42,SSE,158,11.9,11.9,98,0.00,CLR,,0.00,WeatherDisplay:10.37,2013-01-26 13:18:00,
2013-01-26 15:23:00,82.0,81.4,29.42,SSW,202,15.0,15.0,98,0.00,CLR,,0.00,WeatherDisplay:10.37,2013-01-26 13:23:00,
2013-01-26 15:28:00,82.8,82.2,29.42,SSE,158,12.7,12.7,98,0.00,CLR,,0.00,WeatherDisplay:10.37,2013-01-26 13:28:00,
2013-01-26 15:33:00,81.3,80.7,29.42,South,180,15.0,15.0,98,0.00,CLR,,0.00,WeatherDisplay:10.37,2013-01-26 13:33:00,
2013-01-26 15:38:00,81.5,80.9,29.42,South,180,12.7,12.7,98,0.00,CLR,,0.00,WeatherDisplay:10.37,2013-01-26 13:38:00,
2013-01-26 15:43:00,81.5,80.9,29.42,SW,225,13.8,13.8,98,0.00,CLR,,0.00,WeatherDisplay:10.37,2013-01-26 13:43:00,
2013-01-26 15:48:00,82.2,81.6,29.42,SSE,158,11.5,11.5,98,0.00,CLR,,0.00,WeatherDisplay:10.37,2013-01-26 13:48:00,
2013-01-26 15:53:00,81.1,80.5,29.42,SW,225,13.8,13.8,98,0.00,CLR,,0.00,WeatherDisplay:10.37,2013-01-26 13:53:00,
2013-01-26 15:58:00,83.7,83.1,29.42,SSE,158,10.4,10.4,98,0.00,CLR,,0.00,WeatherDisplay:10.37,2013-01-26 13:58:00,
2013-01-26 16:03:00,82.9,82.3,29.42,South,180,12.4,12.4,98,0.00,CLR,,0.00,WeatherDisplay:10.37,2013-01-26 14:03:00,
2013-01-26 16:08:00,81.9,81.3,29.42,SSE,158,12.7,12.7,98,0.00,CLR,,0.00,WeatherDisplay:10.37,2013-01-26 14:08:00,
2013-01-26 16:13:00,81.5,80.9,29.42,SSE,158,10.4,10.4,98,0.00,CLR,,0.00,WeatherDisplay:10.37,2013-01-26 14:13:00,
2013-01-26 16:18:00,80.8,80.2,29.42,SSE,158,11.5,11.5,98,0.00,CLR,,0.00,WeatherDisplay:10.37,2013-01-26 14:18:00,
2013-01-26 16:23:00,80.4,79.8,29.42,SSW,202,10.4,10.4,98,0.00,CLR,,0.00,WeatherDisplay:10.37,2013-01-26 14:23:00,
2013-01-26 16:28:00,82.0,81.4,29.42,SW,225,10.4,10.4,98,0.00,CLR,,0.00,WeatherDisplay:10.37,2013-01-26 14:28:00,
2013-01-26 16:33:00,81.3,80.7,29.42,South,180,10.4,10.4,98,0.00,CLR,,0.00,WeatherDisplay:10.37,2013-01-26 14:33:00,
2013-01-26 16:38:00,82.6,82.0,29.42,SE,135,9.2,9.2,98,0.00,CLR,,0.00,WeatherDisplay:10.37,2013-01-26 14:38:00,
2013-01-26 16:43:00,81.3,80.7,29.42,South,180,11.5,11.5,98,0.00,CLR,,0.00,WeatherDisplay:10.37,2013-01-26 14:43:00,
2013-01-26 16:48:00,80.1,79.5,29.42,SW,225,10.4,10.4,98,0.00,CLR,,0.00,WeatherDisplay:10.37,2013-01-26 14:48:00,
2013-01-26 16:53:00,80.4,79.8,29.42,South,180,8.3,8.3,98,0.00,CLR,,0.00,WeatherDisplay:10.37,2013-01-26 14:53:00,
2013-01-26 16:58:00,81.0,80.4,29.42,South,180,6.9,6.9,98,0.00,CLR,,0.00,WeatherDisplay:10.37,2013-01-26 14:58:00,
2013-01-26 17:03:00,80.6,80.0,29.42,SSE,158,12.4,12.4,98,0.00,CLR,,0.00,WeatherDisplay:10.37,2013-01-26 15:03:00,
2013-01-26 17:08:00,81.0,80.4,29.41,SSW,202,8.1,8.1,98,0.00,CLR,,0.00,WeatherDisplay:10.37,2013-01-26 15:08:00,
2013-01-26 17:13:00,81.3,80.7,29.41,South,180,10.4,10.4,98,0.00,CLR,,0.00,WeatherDisplay:10.37,2013-01-26 15:13:00,
2013-01-26 17:18:00,82.0,81.4,29.41,SSE,158,9.9,9.9,98,0.00,CLR,,0.00,WeatherDisplay:10.37,2013-01-26 15:18:00,
2013-01-26 17:23:00,81.3,80.7,29.41,South,180,7.8,7.8,98,0.00,CLR,,0.00,WeatherDisplay:10.37,2013-01-26 15:23:00,
2013-01-26 17:28:00,80.1,79.5,29.41,SSW,202,9.2,9.2,98,0.00,CLR,,0.00,WeatherDisplay:10.37,2013-01-26 15:28:00,
2013-01-26 17:33:00,79.5,78.9,29.41,SSE,158,8.1,8.1,98,0.00,CLR,,0.00,WeatherDisplay:10.37,2013-01-26 15:33:00,
2013-01-26 17:38:00,80.1,79.5,29.41,South,180,8.1,8.1,98,0.00,CLR,,0.00,WeatherDisplay:10.37,2013-01-26 15:38:00,
2013-01-26 17:43:00,80.6,80.0,29.41,SSW,202,7.3,7.3,98,0.00,CLR,,0.00,WeatherDisplay:10.37,2013-01-26 15:43:00,
2013-01-26 17:48:00,81.1,80.5,29.41,WNW,292,9.2,9.2,98,0.00,CLR,,0.00,WeatherDisplay:10.37,2013-01-26 15:48:00,
2013-01-26 17:53:00,80.6,80.0,29.41,South,180,6.9,6.9,98,0.00,CLR,,0.00,WeatherDisplay:10.37,2013-01-26 15:53:00,
2013-01-26 17:58:00,80.1,79.5,29.41,SSE,165,6.0,9.0,98,0.00,CLR,,0.00,WeatherDisplay:10.37,2013-01-26 15:58:00,
2013-01-26 18:03:00,80.2,79.6,29.41,South,180,8.3,8.3,98,0.00,CLR,,0.00,WeatherDisplay:10.37,2013-01-26 16:03:00,
2013-01-26 18:08:00,80.8,80.2,29.41,SSE,158,6.9,6.9,98,0.00,CLR,,0.00,WeatherDisplay:10.37,2013-01-26 16:08:00,
2013-01-26 18:13:00,79.7,79.1,29.41,SE,135,8.3,8.3,98,0.00,CLR,,0.00,WeatherDisplay:10.37,2013-01-26 16:13:00,
2013-01-26 18:18:00,79.7,79.1,29.41,ESE,112,6.9,6.9,98,0.00,CLR,,0.00,WeatherDisplay:10.37,2013-01-26 16:18:00,
2013-01-26 18:23:00,80.1,79.5,29.41,SSE,158,5.8,5.8,98,0.00,CLR,,0.00,WeatherDisplay:10.37,2013-01-26 16:23:00,
2013-01-26 18:28:00,79.0,78.4,29.41,SSE,158,8.1,8.1,98,0.00,CLR,,0.00,WeatherDisplay:10.37,2013-01-26 16:28:00,
2013-01-26 18:33:00,78.3,77.7,29.41,South,180,5.3,5.3,98,0.00,CLR,,0.00,WeatherDisplay:10.37,2013-01-26 16:33:00,
2013-01-26 18:38:00,78.4,77.8,29.41,South,180,8.1,8.1,98,0.00,CLR,,0.00,WeatherDisplay:10.37,2013-01-26 16:38:00,
2013-01-26 18:43:00,78.8,78.2,29.42,SSE,158,5.8,5.8,98,0.00,CLR,,0.00,WeatherDisplay:10.37,2013-01-26 16:43:00,
2013-01-26 18:48:00,79.3,78.7,29.42,ESE,112,6.9,7.0,98,0.00,CLR,,0.00,WeatherDisplay:10.37,2013-01-26 16:48:00,
2013-01-26 18:53:00,78.8,78.2,29.42,SSE,158,5.8,5.8,98,0.00,CLR,,0.00,WeatherDisplay:10.37,2013-01-26 16:53:00,
2013-01-26 18:58:00,78.3,77.7,29.42,South,180,5.8,5.8,98,0.00,CLR,,0.00,WeatherDisplay:10.37,2013-01-26 16:58:00,
2013-01-26 19:03:00,78.1,77.5,29.42,SSW,202,5.8,5.8,98,0.00,CLR,,0.00,WeatherDisplay:10.37,2013-01-26 17:03:00,
2013-01-26 19:08:00,77.9,77.3,29.42,SSW,202,6.9,6.9,98,0.00,CLR,,0.00,WeatherDisplay:10.37,2013-01-26 17:08:00,
2013-01-26 19:13:00,77.0,76.4,29.42,SSW,202,5.8,5.8,98,0.00,CLR,,0.00,WeatherDisplay:10.37,2013-01-26 17:13:00,
2013-01-26 19:18:00,77.0,76.4,29.42,SSW,202,5.8,5.8,98,0.00,CLR,,0.00,WeatherDisplay:10.37,2013-01-26 17:18:00,
2013-01-26 19:23:00,76.3,75.7,29.42,South,180,4.6,4.6,98,0.00,CLR,,0.00,WeatherDisplay:10.37,2013-01-26 17:23:00,
2013-01-26 19:28:00,76.5,75.9,29.42,SSE,158,3.5,3.5,98,0.00,CLR,,0.00,WeatherDisplay:10.37,2013-01-26 17:28:00,
2013-01-26 19:33:00,76.3,75.7,29.43,SSE,158,3.5,3.5,98,0.00,CLR,,0.00,WeatherDisplay:10.37,2013-01-26 17:33:00,
2013-01-26 19:38:00,75.4,74.8,29.43,South,180,3.5,3.5,98,0.00,CLR,,0.00,WeatherDisplay:10.37,2013-01-26 17:38:00,
2013-01-26 19:43:00,75.2,74.6,29.43,South,180,4.6,4.6,98,0.00,CLR,,0.00,WeatherDisplay:10.37,2013-01-26 17:43:00,
2013-01-26 19:48:00,73.6,73.0,29.43,South,180,3.7,3.7,98,0.00,CLR,,0.00,WeatherDisplay:10.37,2013-01-26 17:48:00,
2013-01-26 19:53:00,73.6,73.0,29.43,South,180,3.7,3.7,98,0.00,CLR,,0.00,WeatherDisplay:10.37,2013-01-26 17:53:00,
2013-01-26 19:58:00,72.9,72.3,29.43,SSE,158,3.5,3.5,98,0.00,CLR,,0.00,WeatherDisplay:10.37,2013-01-26 17:58:00,
2013-01-26 20:03:00,73.2,72.6,29.43,South,180,3.5,3.5,98,0.00,CLR,,0.00,WeatherDisplay:10.37,2013-01-26 18:03:00,
2013-01-26 20:08:00,72.9,72.3,29.44,South,180,3.7,3.7,98,0.00,CLR,,0.00,WeatherDisplay:10.37,2013-01-26 18:08:00,
2013-01-26 20:13:00,72.9,72.3,29.44,South,180,4.2,4.2,98,0.00,CLR,,0.00,WeatherDisplay:10.37,2013-01-26 18:13:00,
2013-01-26 20:18:00,72.9,72.3,29.44,South,180,3.5,3.5,98,0.00,CLR,,0.00,WeatherDisplay:10.37,2013-01-26 18:18:00,
2013-01-26 20:23:00,72.5,71.9,29.44,SW,225,3.5,3.5,98,0.00,CLR,,0.00,WeatherDisplay:10.37,2013-01-26 18:23:00,
2013-01-26 20:28:00,72.7,72.1,29.44,South,180,4.6,4.6,98,0.00,CLR,,0.00,WeatherDisplay:10.37,2013-01-26 18:28:00,
2013-01-26 20:33:00,71.8,71.2,29.44,South,180,3.5,3.5,98,0.00,CLR,,0.00,WeatherDisplay:10.37,2013-01-26 18:33:00,
2013-01-26 20:38:00,72.1,71.5,29.44,South,180,3.5,3.5,98,0.00,CLR,,0.00,WeatherDisplay:10.37,2013-01-26 18:38:00,
2013-01-26 20:43:00,71.6,71.0,29.44,South,180,3.5,3.5,98,0.00,CLR,,0.00,WeatherDisplay:10.37,2013-01-26 18:43:00,
2013-01-26 20:48:00,71.4,70.8,29.44,South,180,2.7,2.7,98,0.00,CLR,,0.00,WeatherDisplay:10.37,2013-01-26 18:48:00,
2013-01-26 20:53:00,72.1,71.5,29.44,SSW,202,3.5,3.5,98,0.00,CLR,,0.00,WeatherDisplay:10.37,2013-01-26 18:53:00,
2013-01-26 20:58:00,72.1,71.5,29.44,SSW,202,3.5,3.5,98,0.00,CLR,,0.00,WeatherDisplay:10.37,2013-01-26 18:58:00,
2013-01-26 21:03:00,71.6,71.0,29.44,SSE,158,2.3,2.5,98,0.00,CLR,,0.00,WeatherDisplay:10.37,2013-01-26 19:03:00,
2013-01-26 21:08:00,71.4,70.8,29.45,South,180,2.7,2.7,98,0.00,CLR,,0.00,WeatherDisplay:10.37,2013-01-26 19:08:00,
2013-01-26 21:13:00,71.1,70.5,29.45,South,180,2.7,2.7,98,0.00,CLR,,0.00,WeatherDisplay:10.37,2013-01-26 19:13:00,
2013-01-26 21:18:00,71.2,70.6,29.45,SSE,158,3.5,3.5,98,0.00,CLR,,0.00,WeatherDisplay:10.37,2013-01-26 19:18:00,
2013-01-26 21:23:00,71.1,70.5,29.45,South,180,3.5,3.5,98,0.00,CLR,,0.00,WeatherDisplay:10.37,2013-01-26 19:23:00,
2013-01-26 21:28:00,70.7,70.1,29.45,South,180,2.3,2.3,98,0.00,CLR,,0.00,WeatherDisplay:10.37,2013-01-26 19:28:00,
2013-01-26 21:34:00,70.7,70.1,29.45,South,180,2.3,2.3,98,0.00,CLR,,0.00,WeatherDisplay:10.37,2013-01-26 19:34:00,
2013-01-26 21:39:00,70.7,70.1,29.45,South,180,2.3,2.3,98,0.00,CLR,,0.00,WeatherDisplay:10.37,2013-01-26 19:39:00,
2013-01-26 21:44:00,69.8,69.2,29.46,SW,225,2.2,2.2,98,0.00,CLR,,0.00,WeatherDisplay:10.37,2013-01-26 19:44:00,
2013-01-26 21:49:00,69.6,69.0,29.46,South,180,1.1,1.5,98,0.00,CLR,,0.00,WeatherDisplay:10.37,2013-01-26 19:49:00,
2013-01-26 21:54:00,70.0,69.4,29.46,South,180,2.3,2.3,98,0.00,CLR,,0.00,WeatherDisplay:10.37,2013-01-26 19:54:00,
2013-01-26 21:59:00,70.3,69.7,29.46,SSW,202,2.7,2.7,98,0.00,CLR,,0.00,WeatherDisplay:10.37,2013-01-26 19:59:00,
2013-01-26 22:04:00,70.0,69.4,29.46,South,180,2.3,2.3,98,0.00,CLR,,0.00,WeatherDisplay:10.37,2013-01-26 20:04:00,
2013-01-26 22:09:00,69.3,68.7,29.46,SSW,202,1.7,1.7,98,0.00,CLR,,0.00,WeatherDisplay:10.37,2013-01-26 20:09:00,
2013-01-26 22:14:00,69.4,68.8,29.46,SSW,202,1.1,1.3,98,0.00,CLR,,0.00,WeatherDisplay:10.37,2013-01-26 20:14:00,
2013-01-26 22:19:00,69.4,68.8,29.46,SSW,202,0.0,0.0,98,0.00,CLR,,0.00,WeatherDisplay:10.37,2013-01-26 20:19:00,
2013-01-26 22:24:00,68.5,67.9,29.46,SSW,202,0.0,0.0,98,0.00,CLR,,0.00,WeatherDisplay:10.37,2013-01-26 20:24:00,
2013-01-26 22:29:00,67.6,67.0,29.46,SW,225,0.0,0.0,98,0.00,CLR,,0.00,WeatherDisplay:10.37,2013-01-26 20:29:00,
2013-01-26 22:34:00,68.5,67.9,29.46,SW,225,0.0,0.0,98,0.00,CLR,,0.00,WeatherDisplay:10.37,2013-01-26 20:34:00,
2013-01-26 22:39:00,68.4,67.8,29.46,SSW,202,0.0,0.0,98,0.00,CLR,,0.00,WeatherDisplay:10.37,2013-01-26 20:39:00,
2013-01-26 22:44:00,68.5,67.9,29.46,SSW,202,0.0,0.0,98,0.00,CLR,,0.00,WeatherDisplay:10.37,2013-01-26 20:44:00,
2013-01-26 22:49:00,68.0,67.4,29.46,SSW,202,0.0,0.0,98,0.00,CLR,,0.00,WeatherDisplay:10.37,2013-01-26 20:49:00,
2013-01-26 22:54:00,67.8,67.2,29.46,SSW,202,2.3,2.3,98,0.00,CLR,,0.00,WeatherDisplay:10.37,2013-01-26 20:54:00,
2013-01-26 22:59:00,67.8,67.2,29.46,SSW,202,0.0,0.0,98,0.00,CLR,,0.00,WeatherDisplay:10.37,2013-01-26 20:59:00,
2013-01-26 23:04:00,67.5,66.9,29.46,SSW,202,0.0,0.0,98,0.00,CLR,,0.00,WeatherDisplay:10.37,2013-01-26 21:04:00,
2013-01-26 23:09:00,68.5,67.9,29.46,SSE,158,1.7,1.7,98,0.00,CLR,,0.00,WeatherDisplay:10.37,2013-01-26 21:09:00,
2013-01-26 23:14:00,67.6,67.0,29.46,South,180,0.0,0.0,98,0.00,CLR,,0.00,WeatherDisplay:10.37,2013-01-26 21:14:00,
2013-01-26 23:19:00,67.3,66.7,29.46,SSW,202,0.0,0.0,98,0.00,CLR,,0.00,WeatherDisplay:10.37,2013-01-26 21:19:00,
2013-01-26 23:24:00,67.1,66.5,29.46,SSW,202,1.1,1.1,98,0.00,CLR,,0.00,WeatherDisplay:10.37,2013-01-26 21:24:00,
2013-01-26 23:29:00,67.5,66.9,29.46,South,180,1.7,1.7,98,0.00,CLR,,0.00,WeatherDisplay:10.37,2013-01-26 21:29:00,
2013-01-26 23:34:00,67.5,66.9,29.46,SW,225,2.3,2.3,98,0.00,CLR,,0.00,WeatherDisplay:10.37,2013-01-26 21:34:00,
2013-01-26 23:39:00,67.6,67.0,29.46,SW,225,1.1,1.1,98,0.00,CLR,,0.00,WeatherDisplay:10.37,2013-01-26 21:39:00,
2013-01-26 23:44:00,67.6,67.0,29.46,SSW,202,0.0,0.0,98,0.00,CLR,,0.00,WeatherDisplay:10.37,2013-01-26 21:44:00,
2013-01-26 23:49:00,68.0,67.4,29.46,SSW,202,0.0,0.0,98,0.00,CLR,,0.00,WeatherDisplay:10.37,2013-01-26 21:49:00,
2013-01-26 23:54:00,67.3,66.7,29.45,SSW,202,0.0,0.0,98,0.00,CLR,,0.00,WeatherDisplay:10.37,2013-01-26 21:54:00,
2013-01-26 23:59:00,67.6,67.0,29.45,SSW,202,0.0,0.0,98,0.00,CLR,,0.00,WeatherDisplay:10.37,2013-01-26 21:59:00,